Time;durP1;ratioP1;P1;durP2;ratioP2;P2;SDS_P1;SDS_P2;PMS_P1;PMS_P2;Temp;Humidity;BMP_temperature;BMP_pressure;BME280_temperature;BME280_humidity;BME280_pressure;Samples;Min_cycle;Max_cycle;Signal;HPM_P1;HPM_P2
2023/03/12 00:01:32;;;;;;;12.48;11.38;;;;;;;-2.15;76.60;97942.66;5050270;28;20527;-75
2023/03/12 00:04:00;;;;;;;12.70;11.75;;;;;;;-2.17;76.68;97933.31;5055538;28;20055;-77
2023/03/12 00:06:25;;;;;;;13.95;12.85;;;;;;;-2.06;76.25;97937.38;5070254;28;20027;-75
2023/03/12 00:08:51;;;;;;;12.93;11.88;;;;;;;-2.20;77.11;97920.47;5053440;28;20036;-75
2023/03/12 00:11:18;;;;;;;12.98;11.85;;;;;;;-2.11;76.71;97936.09;5070129;28;20024;-76
2023/03/12 00:13:43;;;;;;;15.20;13.95;;;;;;;-2.08;76.75;97934.91;5053238;28;20116;-75
2023/03/12 00:16:14;;;;;;;14.85;13.60;;;;;;;-2.37;77.65;97945.22;5050011;28;20112;-75
2023/03/12 00:18:40;;;;;;;13.05;11.85;;;;;;;-2.21;76.46;97945.16;5056236;28;20033;-75
2023/03/12 00:21:05;;;;;;;16.55;15.32;;;;;;;-2.37;77.36;97947.88;5070185;28;20122;-75
2023/03/12 00:23:30;;;;;;;16.73;15.38;;;;;;;-2.25;77.85;97949.16;5053093;28;20040;-74
2023/03/12 00:26:01;;;;;;;18.17;16.67;;;;;;;-2.17;77.14;97951.78;5070119;28;20025;-74
2023/03/12 00:28:26;;;;;;;18.23;16.83;;;;;;;-2.28;77.39;97949.47;5049785;28;20104;-74
2023/03/12 00:30:52;;;;;;;18.63;17.05;;;;;;;-2.16;76.59;97954.22;5059808;28;20501;-75
2023/03/12 00:33:17;;;;;;;18.17;16.67;;;;;;;-2.22;77.24;97943.53;5049372;28;20033;-75
2023/03/12 00:35:43;;;;;;;18.98;17.52;;;;;;;-2.17;76.97;97949.13;5064410;28;20103;-75
2023/03/12 00:38:09;;;;;;;21.92;20.23;;;;;;;-2.18;76.50;97939.56;5056799;28;20131;-75
2023/03/12 00:40:34;;;;;;;20.45;18.80;;;;;;;-2.27;77.27;97941.41;5073724;28;20035;-75
2023/03/12 00:42:59;;;;;;;19.30;17.80;;;;;;;-2.28;77.64;97944.22;5073365;28;20036;-76
2023/03/12 00:45:25;;;;;;;19.63;18.13;;;;;;;-2.34;78.15;97929.06;5056897;28;20029;-76
2023/03/12 00:47:50;;;;;;;20.20;18.60;;;;;;;-2.19;78.14;97933.47;5053533;28;20115;-75
2023/03/12 00:50:16;;;;;;;20.58;18.92;;;;;;;-2.23;77.88;97936.63;5067091;28;20116;-76
2023/03/12 00:52:41;;;;;;;20.67;19.17;;;;;;;-2.40;78.39;97949.03;5056697;28;20028;-75
2023/03/12 00:55:07;;;;;;;21.67;19.95;;;;;;;-2.44;78.79;97939.00;5073407;28;20024;-75
2023/03/12 00:57:32;;;;;;;22.85;20.98;;;;;;;-2.34;78.36;97944.91;5039930;28;20031;-75
2023/03/12 00:59:58;;;;;;;22.88;21.08;;;;;;;-2.39;78.41;97936.66;5056530;28;20024;-75
2023/03/12 01:02:24;;;;;;;22.33;20.52;;;;;;;-2.37;78.46;97939.97;5056558;28;20487;-75
2023/03/12 01:04:49;;;;;;;20.05;18.55;;;;;;;-2.45;78.75;97942.63;5074370;28;20095;-76
2023/03/12 01:07:15;;;;;;;19.83;18.42;;;;;;;-2.42;78.59;97937.00;5056289;28;20037;-75
2023/03/12 01:09:40;;;;;;;21.63;19.88;;;;;;;-2.47;77.80;97939.31;5073145;28;20111;-75
2023/03/12 01:12:06;;;;;;;21.63;19.55;;;;;;;-2.41;77.56;97938.66;5069649;28;20029;-76
2023/03/12 01:14:32;;;;;;;26.20;23.58;;;;;;;-2.55;77.98;97942.00;5036271;28;20032;-76
2023/03/12 01:16:57;;;;;;;26.00;23.60;;;;;;;-2.50;78.27;97934.41;5058620;28;20040;-75
2023/03/12 01:19:22;;;;;;;26.83;24.25;;;;;;;-2.41;77.53;97938.66;5072950;28;20021;-75
2023/03/12 01:21:48;;;;;;;26.63;24.23;;;;;;;-2.47;78.41;97949.84;5074047;28;20508;-76
2023/03/12 01:24:13;;;;;;;23.98;21.88;;;;;;;-2.51;78.44;97943.28;5072824;28;20031;-74
2023/03/12 01:26:39;;;;;;;24.67;22.42;;;;;;;-2.43;78.50;97945.91;5073395;28;20032;-76
2023/03/12 01:29:04;;;;;;;25.52;23.42;;;;;;;-2.45;78.47;97948.69;5052802;28;20510;-76
2023/03/12 01:31:30;;;;;;;25.40;23.35;;;;;;;-2.48;78.62;97948.22;5054816;28;20028;-78
2023/03/12 01:33:56;;;;;;;21.70;19.85;;;;;;;-2.50;78.67;97945.78;5056040;28;20021;-74
2023/03/12 01:36:24;;;;;;;23.73;21.73;;;;;;;-2.49;79.00;97950.03;5055850;28;20032;-74
2023/03/12 01:38:51;;;;;;;25.00;22.85;;;;;;;-2.40;79.03;97950.81;5027057;28;20025;-75
2023/03/12 01:41:16;;;;;;;25.30;23.10;;;;;;;-2.34;78.42;97944.91;5082948;28;20476;-76
2023/03/12 01:43:42;;;;;;;25.10;22.70;;;;;;;-2.29;78.33;97947.84;5048102;28;20036;-74
2023/03/12 01:46:27;;;;;;;26.73;23.52;;;;;;;-2.29;78.11;97953.13;5069319;28;20033;-75
2023/03/12 01:48:58;;;;;;;24.23;22.27;;;;;;;-2.22;77.99;97948.81;5080624;28;20130;-74
2023/03/12 01:51:31;;;;;;;23.33;21.20;;;;;;;-2.25;78.47;97939.44;5052804;28;20071;-74
2023/03/12 01:53:59;;;;;;;22.90;21.00;;;;;;;-2.14;77.77;97940.84;5051642;28;20025;-76
2023/03/12 01:56:27;;;;;;;21.15;19.55;;;;;;;-2.21;78.35;97939.91;5039183;28;20035;-75
2023/03/12 01:58:55;;;;;;;18.80;17.13;;;;;;;-2.28;77.88;97934.50;5038999;28;20035;-77
2023/03/12 02:01:21;;;;;;;20.45;18.70;;;;;;;-2.27;78.30;97935.31;5052514;28;20025;-76
2023/03/12 02:03:50;;;;;;;19.95;18.20;;;;;;;-2.32;78.58;97929.72;5052249;28;20040;-75
2023/03/12 02:06:18;;;;;;;20.17;18.58;;;;;;;-2.25;78.57;97934.16;5055577;28;20021;-75
2023/03/12 02:08:44;;;;;;;20.13;18.73;;;;;;;-2.31;78.35;97923.47;5068766;28;20127;-75
2023/03/12 02:11:11;;;;;;;19.85;18.25;;;;;;;-2.49;79.57;97926.31;5052237;28;20021;-76
2023/03/12 02:13:37;;;;;;;18.75;16.92;;;;;;;-2.53;79.48;97929.47;5053168;28;20025;-75
2023/03/12 02:16:02;;;;;;;21.70;19.92;;;;;;;-2.47;79.87;97934.03;5055348;28;20063;-75
2023/03/12 02:18:28;;;;;;;23.15;21.13;;;;;;;-2.36;79.60;97931.91;5055426;28;20498;-75
2023/03/12 02:21:13;;;;;;;21.38;19.83;;;;;;;-2.31;79.19;97923.47;5051819;28;20025;-75
2023/03/12 02:23:57;;;;;;;21.23;19.35;;;;;;;-2.35;79.10;97927.41;5054969;28;20032;-75
2023/03/12 02:26:25;;;;;;;22.10;20.40;;;;;;;-2.26;78.94;97921.13;5054194;28;20123;-75
2023/03/12 02:28:51;;;;;;;20.10;18.70;;;;;;;-2.30;78.87;97909.28;5051691;28;20029;-74
2023/03/12 02:31:21;;;;;;;20.83;19.40;;;;;;;-2.32;79.73;97932.38;5051049;28;21640;-75
2023/03/12 02:33:46;;;;;;;20.70;19.20;;;;;;;-2.36;79.24;97925.78;5038163;28;20017;-75
2023/03/12 02:36:12;;;;;;;19.50;18.27;;;;;;;-2.43;79.94;97935.38;5072659;28;20036;-75
2023/03/12 02:38:40;;;;;;;21.73;20.42;;;;;;;-2.30;79.70;97930.38;5051237;28;20029;-75
2023/03/12 02:41:21;;;;;;;22.27;20.80;;;;;;;-2.20;79.65;97936.28;5068132;28;20505;-76
2023/03/12 02:43:51;;;;;;;19.50;18.23;;;;;;;-2.04;79.40;97936.22;5080198;28;20036;-75
2023/03/12 02:46:16;;;;;;;21.27;19.95;;;;;;;-2.14;79.37;97935.59;5034746;28;20535;-75
2023/03/12 02:48:42;;;;;;;20.13;18.58;;;;;;;-2.12;79.16;97939.69;5064306;28;20028;-77
2023/03/12 02:51:08;;;;;;;23.05;21.52;;;;;;;-1.98;79.50;97935.50;5054760;28;20430;-76
2023/03/12 02:53:33;;;;;;;23.85;22.20;;;;;;;-1.97;78.84;97923.97;5034711;28;20017;-76
2023/03/12 02:55:59;;;;;;;19.23;17.92;;;;;;;-2.04;78.71;97932.75;5037367;28;20024;-77
2023/03/12 02:58:24;;;;;;;19.35;18.05;;;;;;;-1.94;79.69;97936.84;5037717;28;20131;-78
2023/03/12 03:00:50;;;;;;;20.42;19.00;;;;;;;-1.94;78.54;97931.56;5037987;28;20104;-75
2023/03/12 03:03:15;;;;;;;21.23;19.80;;;;;;;-2.00;79.75;97932.22;5051174;28;20067;-76
2023/03/12 03:05:41;;;;;;;19.38;18.08;;;;;;;-1.88;79.55;97925.56;5069949;28;20221;-76
2023/03/12 03:08:06;;;;;;;19.95;18.60;;;;;;;-1.82;78.68;97930.16;5037899;28;20028;-75
2023/03/12 03:10:32;;;;;;;16.33;15.02;;;;;;;-1.68;78.13;97931.25;5054413;28;20044;-74
2023/03/12 03:12:57;;;;;;;19.33;17.83;;;;;;;-1.77;78.94;97926.97;5050909;28;20032;-74
2023/03/12 03:15:23;;;;;;;22.08;20.42;;;;;;;-1.96;80.13;97933.50;5052472;28;20115;-74
2023/03/12 03:17:48;;;;;;;23.52;21.98;;;;;;;-2.04;81.19;97925.66;5054213;28;20035;-74
2023/03/12 03:20:14;;;;;;;24.15;22.55;;;;;;;-1.87;80.54;97937.78;5070853;28;20047;-75
2023/03/12 03:22:39;;;;;;;27.58;25.90;;;;;;;-1.80;81.09;97933.47;5082348;28;20036;-75
2023/03/12 03:25:08;;;;;;;25.33;23.70;;;;;;;-1.79;80.80;97924.53;5052641;28;20402;-74
2023/03/12 03:27:34;;;;;;;24.73;23.02;;;;;;;-1.64;79.69;97928.09;5062625;28;20020;-75
2023/03/12 03:29:59;;;;;;;25.23;23.63;;;;;;;-1.61;79.21;97917.16;5053918;28;20398;-75
2023/03/12 03:32:25;;;;;;;24.13;22.75;;;;;;;-1.53;79.60;97921.56;5037579;28;20044;-76
2023/03/12 03:34:51;;;;;;;26.50;24.90;;;;;;;-1.60;80.02;97923.25;5053739;28;20033;-75
2023/03/12 03:37:17;;;;;;;25.33;23.70;;;;;;;-1.50;79.63;97924.69;5067648;28;20028;-75
2023/03/12 03:39:42;;;;;;;23.27;21.65;;;;;;;-1.46;79.86;97931.25;5065531;28;20108;-74
2023/03/12 03:42:08;;;;;;;26.67;24.98;;;;;;;-1.67;80.85;97923.16;5045562;28;20078;-75
2023/03/12 03:44:34;;;;;;;26.73;24.92;;;;;;;-1.63;80.89;97927.06;5053620;28;20059;-76
2023/03/12 03:46:59;;;;;;;28.63;26.63;;;;;;;-1.65;80.56;97922.97;5048996;28;20020;-77
2023/03/12 03:49:25;;;;;;;26.23;24.52;;;;;;;-1.64;80.66;97928.09;5039046;28;20384;-76
2023/03/12 03:51:50;;;;;;;27.95;26.08;;;;;;;-1.66;81.13;97937.19;5067098;28;20094;-75
2023/03/12 03:54:21;;;;;;;28.10;26.27;;;;;;;-1.71;81.43;97935.06;5056165;28;20068;-75
2023/03/12 03:56:47;;;;;;;26.63;25.13;;;;;;;-1.59;80.00;97941.56;5045829;28;20063;-74
2023/03/12 03:59:12;;;;;;;27.52;25.75;;;;;;;-1.60;80.19;97936.47;5058817;28;20023;-75
2023/03/12 04:01:39;;;;;;;26.70;25.05;;;;;;;-1.60;80.29;97929.38;5077713;28;20039;-75
2023/03/12 04:04:05;;;;;;;27.27;25.60;;;;;;;-1.47;80.17;97940.16;5076146;28;20040;-75
2023/03/12 04:06:32;;;;;;;28.58;26.80;;;;;;;-1.55;80.89;97937.59;5078724;28;20033;-76
2023/03/12 04:08:58;;;;;;;26.30;24.73;;;;;;;-1.43;79.73;97930.09;5070280;28;20054;-76
2023/03/12 04:11:25;;;;;;;23.88;22.45;;;;;;;-1.45;79.91;97932.88;5053016;28;20240;-75
2023/03/12 04:13:51;;;;;;;24.02;22.52;;;;;;;-1.28;79.39;97938.09;5073600;28;20483;-75
2023/03/12 04:16:20;;;;;;;21.45;20.05;;;;;;;-1.27;79.17;97929.16;5054346;28;20029;-77
2023/03/12 04:18:48;;;;;;;22.42;20.92;;;;;;;-1.32;79.27;97926.22;5081168;28;20027;-76
2023/03/12 04:21:14;;;;;;;21.23;19.85;;;;;;;-1.30;79.54;97929.50;5047968;28;20595;-76
2023/03/12 04:23:41;;;;;;;21.33;20.02;;;;;;;-1.28;79.09;97932.81;5073964;28;20119;-76
2023/03/12 04:26:08;;;;;;;17.80;16.50;;;;;;;-1.23;78.56;97930.44;5057983;28;20067;-76
2023/03/12 04:28:35;;;;;;;18.75;17.48;;;;;;;-1.40;79.16;97929.72;5057745;28;20477;-76
2023/03/12 04:31:03;;;;;;;18.92;17.63;;;;;;;-1.29;79.27;97933.78;5057937;28;20029;-76
2023/03/12 04:33:36;;;;;;;16.52;15.43;;;;;;;-1.57;80.11;97928.22;5053664;28;20385;-75
2023/03/12 04:36:03;;;;;;;21.23;19.92;;;;;;;-1.64;80.16;97933.38;5057508;28;20029;-75
2023/03/12 04:38:29;;;;;;;23.67;22.08;;;;;;;-1.59;80.21;97933.63;5048938;28;20103;-76
2023/03/12 04:41:04;;;;;;;19.45;18.08;;;;;;;-1.52;79.93;97931.94;5078747;28;20074;-76
2023/03/12 04:43:30;;;;;;;20.77;19.38;;;;;;;-1.43;79.81;97938.84;5056982;28;20115;-76
2023/03/12 04:45:56;;;;;;;20.25;18.95;;;;;;;-1.46;80.02;97931.25;5073600;28;20024;-76
2023/03/12 04:48:22;;;;;;;22.27;20.83;;;;;;;-1.45;80.17;97932.88;5067304;28;20029;-76
2023/03/12 04:50:50;;;;;;;21.42;19.73;;;;;;;-1.44;79.98;97929.25;5057366;28;20024;-76
2023/03/12 04:53:15;;;;;;;22.88;21.27;;;;;;;-1.41;79.99;97917.53;5066881;28;20398;-77
2023/03/12 04:55:41;;;;;;;25.10;23.30;;;;;;;-1.35;79.97;97921.31;5043461;28;20044;-75
2023/03/12 04:58:06;;;;;;;23.15;21.73;;;;;;;-1.56;81.32;97932.47;5066608;28;20032;-75
2023/03/12 05:00:32;;;;;;;24.27;22.60;;;;;;;-1.46;80.02;97920.69;5056848;28;20103;-75
2023/03/12 05:02:58;;;;;;;21.52;20.08;;;;;;;-1.44;80.30;97929.25;5073402;28;20035;-77
2023/03/12 05:05:23;;;;;;;22.25;20.65;;;;;;;-1.41;79.18;97928.91;5053580;28;20086;-75
2023/03/12 05:07:49;;;;;;;22.65;20.80;;;;;;;-1.30;79.08;97932.13;5063533;28;20028;-75
2023/03/12 05:10:14;;;;;;;20.55;18.83;;;;;;;-1.28;78.94;97933.59;5057219;28;20108;-75
2023/03/12 05:12:40;;;;;;;21.52;19.77;;;;;;;-1.26;78.10;97925.53;5073820;28;20055;-75
2023/03/12 05:15:06;;;;;;;30.98;27.77;;;;;;;-1.29;79.11;97933.78;5056671;28;20475;-77
2023/03/12 05:17:32;;;;;;;38.92;34.88;;;;;;;-1.25;78.79;97932.44;5073359;28;20032;-76
2023/03/12 05:19:57;;;;;;;32.53;29.27;;;;;;;-1.35;78.98;97926.59;5070048;28;20035;-76
2023/03/12 05:22:23;;;;;;;26.20;23.80;;;;;;;-1.40;79.13;97937.63;5066763;28;20067;-76
2023/03/12 05:24:49;;;;;;;27.88;25.60;;;;;;;-1.28;78.40;97933.59;5043004;28;20422;-74
2023/03/12 05:27:16;;;;;;;25.05;22.95;;;;;;;-1.24;78.53;97942.00;5056659;28;20036;-74
2023/03/12 05:29:41;;;;;;;24.83;22.77;;;;;;;-1.15;78.45;97923.28;5056237;28;20108;-75
2023/03/12 05:32:07;;;;;;;24.17;22.30;;;;;;;-1.14;78.32;97934.66;5069578;28;20123;-75
2023/03/12 05:34:33;;;;;;;20.77;19.10;;;;;;;-1.18;78.09;97933.38;5069140;28;20024;-75
2023/03/12 05:37:00;;;;;;;24.20;22.17;;;;;;;-1.24;78.98;97926.16;5055986;28;20063;-75
2023/03/12 05:39:27;;;;;;;24.27;22.45;;;;;;;-1.19;79.25;97931.75;5043200;28;20111;-75
2023/03/12 05:41:56;;;;;;;25.48;23.35;;;;;;;-1.10;79.24;97920.94;5062244;28;20282;-75
2023/03/12 05:44:23;;;;;;;24.88;23.00;;;;;;;-1.07;78.56;97922.38;5079088;28;20029;-77
2023/03/12 05:46:52;;;;;;;24.30;22.33;;;;;;;-1.01;77.89;97929.59;5063344;28;20032;-75
2023/03/12 05:49:19;;;;;;;26.35;24.05;;;;;;;-1.08;78.50;97910.19;5058863;28;20040;-77
2023/03/12 05:51:48;;;;;;;32.88;30.08;;;;;;;-1.01;78.70;97917.22;5041471;28;20029;-76
2023/03/12 05:54:14;;;;;;;33.08;30.20;;;;;;;-0.96;78.27;97906.94;5052796;28;20029;-78
2023/03/12 05:56:41;;;;;;;25.00;22.75;;;;;;;-0.86;77.83;97902.19;5067528;28;20029;-77
2023/03/12 05:59:06;;;;;;;21.27;19.58;;;;;;;-0.82;77.85;97907.97;5053219;28;20021;-78
2023/03/12 06:01:32;;;;;;;20.42;18.92;;;;;;;-0.83;77.83;97912.41;5048844;28;20158;-78
2023/03/12 06:03:59;;;;;;;21.77;19.75;;;;;;;-0.59;76.18;97919.28;5057748;28;20509;-77
2023/03/12 06:06:25;;;;;;;18.05;16.45;;;;;;;-0.73;77.35;97913.00;5058243;28;20064;-78
2023/03/12 06:08:52;;;;;;;19.17;17.55;;;;;;;-0.62;77.19;97924.94;5063252;28;20020;-78
2023/03/12 06:11:17;;;;;;;19.70;18.10;;;;;;;-0.62;76.58;97932.88;5083717;28;20058;-77
2023/03/12 06:13:43;;;;;;;19.88;18.17;;;;;;;-0.63;76.76;97928.56;5058688;28;20016;-78
2023/03/12 06:16:17;;;;;;;19.52;17.95;;;;;;;-0.82;78.96;97923.81;5058959;28;20047;-79
2023/03/12 06:18:43;;;;;;;18.80;17.17;;;;;;;-0.61;77.29;97937.16;5063858;28;20119;-79
2023/03/12 06:21:18;;;;;;;20.08;18.42;;;;;;;-0.51;77.05;97921.84;5038701;28;20056;-78
2023/03/12 06:23:44;;;;;;;23.55;21.63;;;;;;;-0.49;77.97;97940.97;5047622;28;20038;-76
2023/03/12 06:26:14;;;;;;;22.15;20.25;;;;;;;-0.32;76.95;97931.88;5058275;28;20050;-76
2023/03/12 06:28:40;;;;;;;22.45;20.75;;;;;;;-0.37;77.87;97928.97;5064999;28;20032;-79
2023/03/12 06:31:06;;;;;;;22.48;20.98;;;;;;;-0.35;78.33;97934.88;5080634;28;20492;-78
2023/03/12 06:33:31;;;;;;;21.83;20.33;;;;;;;-0.24;78.14;97931.81;5074335;28;20104;-79
2023/03/12 06:35:59;;;;;;;20.00;18.70;;;;;;;-0.16;77.46;97926.41;5071393;28;20027;-77
2023/03/12 06:38:25;;;;;;;19.27;17.83;;;;;;;-0.02;77.02;97928.22;5065991;28;20043;-78
2023/03/12 06:41:01;;;;;;;19.38;17.90;;;;;;;-0.09;76.72;97922.00;5062545;28;20030;-78
2023/03/12 06:43:29;;;;;;;19.88;18.38;;;;;;;-0.02;76.78;97928.22;5040794;28;20407;-79
2023/03/12 06:45:56;;;;;;;50.35;40.10;;;;;;;-0.33;76.95;97929.44;5074068;28;20025;-78
2023/03/12 06:48:22;;;;;;;23.10;20.77;;;;;;;-0.28;76.49;97933.16;5074282;28;20040;-79
2023/03/12 06:50:47;;;;;;;24.92;22.33;;;;;;;-0.17;76.46;97914.19;5057288;28;20108;-78
2023/03/12 06:53:12;;;;;;;19.15;17.45;;;;;;;-0.21;75.81;97904.16;5067401;28;20024;-78
2023/03/12 06:55:38;;;;;;;18.85;16.98;;;;;;;-0.14;75.18;97919.09;5060092;28;20466;-78
2023/03/12 06:58:04;;;;;;;15.40;13.85;;;;;;;-0.16;74.53;97925.56;5073794;28;20048;-79
2023/03/12 07:00:30;;;;;;;14.57;13.25;;;;;;;0.06;74.85;97921.19;5056835;28;20017;-78
2023/03/12 07:02:56;;;;;;;14.35;12.75;;;;;;;0.06;74.26;97905.28;5057018;28;20064;-76
2023/03/12 07:05:23;;;;;;;14.00;12.50;;;;;;;0.25;74.35;97907.34;5087202;28;20538;-78
2023/03/12 07:07:48;;;;;;;14.27;12.98;;;;;;;0.26;74.75;97916.94;5042836;28;20031;-79
2023/03/12 07:10:13;;;;;;;13.02;11.82;;;;;;;0.30;74.54;97931.47;5059515;28;20407;-79
2023/03/12 07:12:39;;;;;;;17.55;15.77;;;;;;;0.37;73.37;97914.66;5063667;28;20427;-77
2023/03/12 07:15:05;;;;;;;19.35;16.42;;;;;;;0.39;73.47;97922.38;5070196;28;20029;-76
2023/03/12 07:17:30;;;;;;;14.55;13.15;;;;;;;0.33;74.23;97923.94;5056474;28;20090;-78
2023/03/12 07:19:56;;;;;;;14.52;12.88;;;;;;;0.54;73.05;97923.16;5053149;28;20024;-77
2023/03/12 07:22:21;;;;;;;12.98;11.68;;;;;;;0.55;72.76;97924.81;5056324;28;20149;-78
2023/03/12 07:24:46;;;;;;;12.23;10.90;;;;;;;0.74;73.02;97934.78;5073142;28;20020;-78
2023/03/12 07:27:12;;;;;;;13.15;11.13;;;;;;;0.65;72.61;97930.63;5073953;28;20032;-79
2023/03/12 07:29:37;;;;;;;12.30;10.25;;;;;;;0.79;72.70;97926.28;5073364;28;20024;-78
2023/03/12 07:32:03;;;;;;;10.73;9.63;;;;;;;0.76;71.75;97927.47;5040391;28;20131;-79
2023/03/12 07:34:28;;;;;;;12.88;10.70;;;;;;;0.79;71.72;97932.41;5073575;28;20088;-78
2023/03/12 07:36:55;;;;;;;12.13;10.23;;;;;;;0.77;71.92;97926.44;5073341;28;20539;-77
2023/03/12 07:39:20;;;;;;;12.60;10.38;;;;;;;0.79;71.54;97926.28;5070309;28;20106;-78
2023/03/12 07:41:46;;;;;;;11.55;10.13;;;;;;;0.87;72.42;97929.59;5082286;28;20067;-79
2023/03/12 07:44:12;;;;;;;12.48;9.95;;;;;;;0.85;71.95;97936.94;5045783;28;20433;-75
2023/03/12 07:46:37;;;;;;;11.32;9.55;;;;;;;0.95;70.81;97932.13;5084264;28;20115;-77
2023/03/12 07:49:03;;;;;;;10.20;9.15;;;;;;;0.99;70.94;97922.78;5056408;28;20028;-79
2023/03/12 07:51:29;;;;;;;9.20;8.35;;;;;;;1.14;71.33;97926.19;5082737;28;20063;-78
2023/03/12 07:53:55;;;;;;;9.98;8.57;;;;;;;1.23;71.32;97930.34;5044447;28;20047;-79
2023/03/12 07:56:21;;;;;;;9.50;8.50;;;;;;;1.29;70.45;97932.22;5036843;28;20037;-79
2023/03/12 07:58:46;;;;;;;9.20;8.15;;;;;;;1.39;69.85;97926.56;5080609;28;20024;-78
2023/03/12 08:01:12;;;;;;;10.82;9.70;;;;;;;1.38;70.25;97917.78;5073003;28;20442;-77
2023/03/12 08:03:37;;;;;;;10.05;8.38;;;;;;;1.52;69.19;97916.03;5056696;28;20060;-78
2023/03/12 08:06:04;;;;;;;11.35;8.65;;;;;;;1.45;69.00;97920.50;5069919;28;20500;-78
2023/03/12 08:08:30;;;;;;;12.63;8.85;;;;;;;1.39;68.84;97929.22;5065429;28;20016;-78
2023/03/12 08:10:56;;;;;;;11.20;9.15;;;;;;;1.51;69.30;97935.66;5038574;28;20040;-79
2023/03/12 08:13:23;;;;;;;10.13;8.45;;;;;;;1.69;68.02;97927.19;5073513;28;20024;-78
2023/03/12 08:15:52;;;;;;;11.95;8.63;;;;;;;1.81;68.21;97925.63;5074697;28;20048;-77
2023/03/12 08:18:18;;;;;;;9.98;7.75;;;;;;;1.86;68.53;97915.25;5055770;28;20031;-78
2023/03/12 08:20:43;;;;;;;12.23;7.18;;;;;;;1.89;67.10;97914.84;5066682;28;20039;-78
2023/03/12 08:23:09;;;;;;;12.57;7.30;;;;;;;1.90;66.36;97905.84;5059767;28;20028;-78
2023/03/12 08:25:35;;;;;;;7.80;6.75;;;;;;;1.94;66.35;97899.13;5040141;28;20036;-78
2023/03/12 08:28:02;;;;;;;10.15;6.47;;;;;;;2.21;67.54;97908.88;5041815;28;20024;-78
2023/03/12 08:30:28;;;;;;;11.18;7.40;;;;;;;2.32;66.62;97905.63;5080360;28;20508;-79
2023/03/12 08:32:54;;;;;;;11.43;7.25;;;;;;;2.32;65.69;97908.28;5070472;28;20020;-79
2023/03/12 08:35:19;;;;;;;8.52;6.55;;;;;;;2.28;67.10;97904.41;5055845;28;20040;-79
2023/03/12 08:37:44;;;;;;;8.93;6.72;;;;;;;2.27;65.71;97900.09;5073489;28;20059;-76
2023/03/12 08:40:13;;;;;;;9.30;6.80;;;;;;;2.21;65.27;97898.25;5056719;28;20066;-79
2023/03/12 08:42:43;;;;;;;8.75;6.45;;;;;;;2.60;65.22;97892.22;5046431;28;20020;-78
2023/03/12 08:45:09;;;;;;;9.43;7.03;;;;;;;2.68;65.16;97892.84;5039950;28;20028;-79
2023/03/12 08:47:35;;;;;;;8.85;6.85;;;;;;;2.71;64.96;97892.44;5072918;28;20024;-79
2023/03/12 08:50:01;;;;;;;9.40;7.30;;;;;;;2.77;64.71;97898.78;5069678;28;20029;-79
2023/03/12 08:52:26;;;;;;;14.30;9.02;;;;;;;2.75;64.30;97891.00;5073706;28;20387;-79
2023/03/12 08:54:51;;;;;;;8.30;7.25;;;;;;;2.89;64.31;97877.75;5092268;28;20039;-77
2023/03/12 08:57:17;;;;;;;8.77;6.97;;;;;;;2.72;65.13;97880.78;5088017;28;20452;-79
2023/03/12 08:59:42;;;;;;;9.15;6.57;;;;;;;2.92;64.29;97874.69;5047429;28;20039;-79
2023/03/12 09:02:10;;;;;;;8.55;6.43;;;;;;;3.03;63.53;97866.91;5069795;28;20027;-78
2023/03/12 09:04:35;;;;;;;8.82;5.47;;;;;;;3.21;62.72;97872.44;5075465;28;20041;-77
2023/03/12 09:07:01;;;;;;;8.27;6.05;;;;;;;3.36;63.18;97850.94;5076510;28;20020;-78
2023/03/12 09:09:26;;;;;;;8.23;6.55;;;;;;;3.34;62.89;97871.56;5043381;28;20491;-78
2023/03/12 09:11:52;;;;;;;9.82;7.15;;;;;;;3.35;61.88;97871.38;5058761;28;20024;-77
2023/03/12 09:14:17;;;;;;;9.23;6.63;;;;;;;3.33;62.68;97867.28;5058461;28;20518;-78
2023/03/12 09:16:42;;;;;;;7.28;6.25;;;;;;;3.49;63.44;97866.88;5059126;28;20128;-78
2023/03/12 09:19:08;;;;;;;8.65;6.20;;;;;;;3.40;61.95;97873.44;5074908;28;20549;-77
2023/03/12 09:21:33;;;;;;;11.02;7.15;;;;;;;3.47;62.82;97864.41;5075720;28;20119;-79
2023/03/12 09:23:59;;;;;;;11.23;7.63;;;;;;;3.61;62.41;97865.19;5077134;28;20059;-79
2023/03/12 09:26:24;;;;;;;11.75;8.15;;;;;;;3.61;61.77;97865.19;5056379;28;20110;-77
2023/03/12 09:28:49;;;;;;;8.73;6.85;;;;;;;3.72;62.36;97871.72;5075571;28;20060;-79
2023/03/12 09:31:15;;;;;;;11.10;7.13;;;;;;;3.64;61.05;97853.31;5059693;28;20032;-79
2023/03/12 09:33:40;;;;;;;9.65;8.13;;;;;;;3.86;61.86;97873.31;5075751;28;20060;-78
2023/03/12 09:36:06;;;;;;;10.68;8.38;;;;;;;3.78;62.93;97871.69;5075704;28;20100;-78
2023/03/12 09:38:34;;;;;;;10.18;6.53;;;;;;;3.43;62.58;97875.69;5076114;28;20036;-79
2023/03/12 09:41:00;;;;;;;7.63;5.40;;;;;;;3.24;62.57;97888.00;5076195;28;20021;-79
2023/03/12 09:43:31;;;;;;;8.85;6.30;;;;;;;3.54;62.14;97879.53;5068164;28;20090;-79
2023/03/12 09:45:57;;;;;;;11.80;8.13;;;;;;;3.53;62.88;97878.72;5062296;28;20032;-77
2023/03/12 09:48:28;;;;;;;13.27;8.25;;;;;;;3.83;62.35;97871.06;5069480;28;20046;-78
2023/03/12 09:50:53;;;;;;;9.93;6.85;;;;;;;3.57;62.64;97874.59;5078708;28;20040;-78
2023/03/12 09:53:30;;;;;;;8.45;6.70;;;;;;;3.85;63.05;97872.50;5059103;28;20396;-79
2023/03/12 09:55:57;;;;;;;8.32;7.43;;;;;;;3.97;62.94;97870.81;5059407;28;20043;-79
2023/03/12 09:58:31;;;;;;;11.15;7.45;;;;;;;3.61;64.06;97859.88;5075962;28;20391;-74
2023/03/12 10:01:12;;;;;;;12.10;7.15;;;;;;;4.09;62.64;97869.13;5072094;28;20060;-77
2023/03/12 10:04:05;;;;;;;8.40;6.40;;;;;;;4.06;62.78;97864.22;5053684;28;20036;-77
2023/03/12 10:07:00;;;;;;;9.73;7.57;;;;;;;4.25;62.40;97869.69;5080581;28;20040;-77
2023/03/12 10:25:13;;;;;;;;;;;;;;;;;;;;;
2023/03/12 10:32:19;;;;;;;;;;;;;;;;;;;;;
2023/03/12 10:36:09;;;;;;;;;;;;;;;;;;;;;
2023/03/12 11:41:15;;;;;;;12.75;6.07;;;;;;;5.04;65.87;97828.13;5068770;23;20080;-74
2023/03/12 11:44:02;;;;;;;8.05;6.20;;;;;;;4.92;67.53;97821.06;5013684;28;20041;-74
2023/03/12 11:46:43;;;;;;;8.52;6.22;;;;;;;4.78;67.17;97831.03;5027405;28;20044;-74
2023/03/12 11:49:30;;;;;;;7.35;6.10;;;;;;;4.54;69.13;97834.47;5009597;28;20385;-75
2023/03/12 11:52:16;;;;;;;9.32;6.80;;;;;;;4.60;68.77;97828.25;5029258;28;20600;-74
2023/03/12 11:55:00;;;;;;;9.80;7.05;;;;;;;4.79;69.42;97833.47;5026948;28;20072;-74
2023/03/12 11:57:31;;;;;;;12.02;7.18;;;;;;;4.86;69.15;97833.41;5025032;28;20546;-74
2023/03/12 12:00:16;;;;;;;14.25;9.40;;;;;;;5.01;69.22;97830.41;5036453;28;20034;-73
2023/03/12 12:02:58;;;;;;;14.48;9.23;;;;;;;4.65;70.36;97820.44;5026906;28;20065;-74
2023/03/12 12:05:50;;;;;;;10.98;8.50;;;;;;;4.80;70.62;97824.44;5029416;28;20038;-74
2023/03/12 12:08:25;;;;;;;13.45;11.00;;;;;;;4.65;72.62;97810.59;5024857;28;20049;-74
2023/03/12 12:10:56;;;;;;;15.60;12.95;;;;;;;4.86;72.47;97817.41;5025279;28;20077;-74
2023/03/12 12:13:22;;;;;;;18.05;15.38;;;;;;;4.77;74.06;97819.53;5025619;28;20044;-74
2023/03/12 12:16:00;;;;;;;13.93;12.68;;;;;;;4.52;74.55;97804.53;5028879;28;20034;-74
2023/03/12 12:19:00;;;;;;;16.50;15.35;;;;;;;4.51;75.69;97808.22;5009874;28;20501;-74
2023/03/12 12:21:44;;;;;;;18.35;16.55;;;;;;;4.57;76.56;97796.72;5025508;28;20037;-74
2023/03/12 12:24:33;;;;;;;23.58;21.88;;;;;;;4.56;76.74;97789.72;5012796;28;20044;-74
2023/03/12 12:27:11;;;;;;;24.38;22.63;;;;;;;4.41;77.54;97792.69;5019798;28;20419;-74
2023/03/12 12:29:50;;;;;;;24.70;22.58;;;;;;;4.63;77.05;97790.50;5012504;28;20120;-74
2023/03/12 12:32:30;;;;;;;33.10;30.38;;;;;;;4.51;78.04;97782.38;5015839;28;20033;-73
2023/03/12 12:35:14;;;;;;;32.05;29.90;;;;;;;4.80;78.49;97780.94;5034866;28;20041;-74
2023/03/12 12:37:55;;;;;;;39.50;37.10;;;;;;;4.48;81.17;97787.34;5034946;28;20427;-73
2023/03/12 12:40:36;;;;;;;48.72;45.50;;;;;;;4.30;82.38;97784.56;5036946;28;20068;-73
2023/03/12 12:43:04;;;;;;;51.33;47.85;;;;;;;4.32;82.80;97777.19;5012265;28;20034;-74
2023/03/12 12:45:30;;;;;;;53.75;50.42;;;;;;;4.24;84.07;97782.78;5026429;28;20403;-74
2023/03/12 12:48:16;;;;;;;54.83;51.30;;;;;;;4.20;85.03;97780.53;5034091;28;20033;-74
2023/03/12 12:50:42;;;;;;;57.03;53.10;;;;;;;4.16;85.73;97768.66;5033785;28;20037;-74
2023/03/12 12:53:20;;;;;;;58.22;54.58;;;;;;;4.27;84.69;97775.16;5013558;28;20022;-74
2023/03/12 12:56:06;;;;;;;57.63;54.10;;;;;;;4.39;84.64;97767.31;5030970;28;20436;-74